RYR144G LPPR-LEMG
Flight info
| Callsign | RYR144G |
|---|---|
| Flight time | 1h 0m |
| Altitude | 37000 |
| Route | PESUL DCT LASIB DCT ROSAL M744 SVL |
| Aircraft | B738/M-SDE2E3FGHIRWXY/LB1 |
Departure
| Time | 2026-05-06 19:59 |
|---|---|
| Airport | Francisco de Sá Carneiro Airport (LPPR) |
Arrival
| Time | 2026-05-06 21:00 |
|---|---|
| Airport | Málaga-Costa del Sol Airport (LEMG) |
| Time | Latitude | Longitude | Altitude | Speed | Heading |
|---|---|---|---|---|---|
| 2026-05-06 19:32 | 41.23772 | -8.67300 | 241 ft | 0 kts | 50° |
| 2026-05-06 19:50 | 41.23770 | -8.67303 | 241 ft | 3 kts | 51° |
| 2026-05-06 19:51 | 41.23753 | -8.67330 | 241 ft | 4 kts | 50° |
| 2026-05-06 19:51 | 41.23737 | -8.67353 | 241 ft | 3 kts | 50° |
| 2026-05-06 19:51 | 41.23725 | -8.67382 | 240 ft | 4 kts | 88° |
| 2026-05-06 19:51 | 41.23732 | -8.67414 | 238 ft | 4 kts | 125° |
| 2026-05-06 19:52 | 41.23738 | -8.67425 | 238 ft | 1 kts | 127° |
| 2026-05-06 19:52 | 41.23738 | -8.67426 | 238 ft | 1 kts | 127° |
| 2026-05-06 19:54 | 41.23738 | -8.67425 | 238 ft | 1 kts | 127° |
| 2026-05-06 19:55 | 41.23721 | -8.67396 | 239 ft | 7 kts | 127° |
| 2026-05-06 19:55 | 41.23661 | -8.67345 | 241 ft | 14 kts | 167° |
| 2026-05-06 19:55 | 41.23575 | -8.67354 | 239 ft | 14 kts | 204° |
| 2026-05-06 19:55 | 41.23479 | -8.67386 | 241 ft | 15 kts | 171° |
| 2026-05-06 19:56 | 41.23386 | -8.67364 | 237 ft | 12 kts | 176° |
| 2026-05-06 19:56 | 41.23331 | -8.67441 | 234 ft | 13 kts | 256° |
| 2026-05-06 19:56 | 41.23314 | -8.67554 | 240 ft | 10 kts | 259° |
| 2026-05-06 19:56 | 41.23309 | -8.67589 | 236 ft | 0 kts | 259° |
| 2026-05-06 19:57 | 41.23309 | -8.67590 | 238 ft | 1 kts | 259° |
| 2026-05-06 19:58 | 41.23303 | -8.67626 | 239 ft | 8 kts | 257° |
| 2026-05-06 19:58 | 41.23292 | -8.67710 | 239 ft | 8 kts | 278° |
| 2026-05-06 19:58 | 41.23342 | -8.67742 | 239 ft | 9 kts | 348° |
| 2026-05-06 19:58 | 41.23441 | -8.67768 | 238 ft | 35 kts | 348° |
| 2026-05-06 19:59 | 41.23929 | -8.67895 | 219 ft | 106 kts | 349° |
| 2026-05-06 19:59 | 41.24840 | -8.68151 | 285 ft | 153 kts | 347° |
| 2026-05-06 19:59 | 41.25885 | -8.68417 | 944 ft | 155 kts | 348° |
| 2026-05-06 19:59 | 41.26962 | -8.68692 | 1626 ft | 165 kts | 348° |
| 2026-05-06 20:00 | 41.28191 | -8.69009 | 1917 ft | 194 kts | 348° |
| 2026-05-06 20:00 | 41.29594 | -8.69381 | 2164 ft | 215 kts | 348° |
| 2026-05-06 20:00 | 41.31101 | -8.69791 | 2563 ft | 229 kts | 348° |
| 2026-05-06 20:00 | 41.32734 | -8.70243 | 2891 ft | 248 kts | 348° |
| 2026-05-06 20:01 | 41.34445 | -8.70721 | 3653 ft | 252 kts | 348° |
| 2026-05-06 20:01 | 41.36195 | -8.71214 | 4338 ft | 261 kts | 348° |
| 2026-05-06 20:01 | 41.37993 | -8.71713 | 5097 ft | 266 kts | 351° |
| 2026-05-06 20:01 | 41.39828 | -8.71543 | 5903 ft | 268 kts | 18° |
| 2026-05-06 20:02 | 41.41479 | -8.70347 | 6597 ft | 274 kts | 37° |
| 2026-05-06 20:02 | 41.42888 | -8.68663 | 7264 ft | 279 kts | 55° |
| 2026-05-06 20:02 | 41.43598 | -8.66240 | 7972 ft | 280 kts | 82° |
| 2026-05-06 20:02 | 41.43777 | -8.63658 | 8737 ft | 281 kts | 98° |
| 2026-05-06 20:03 | 41.43053 | -8.61292 | 9471 ft | 278 kts | 132° |
| 2026-05-06 20:03 | 41.41491 | -8.59825 | 10169 ft | 279 kts | 159° |
| 2026-05-06 20:03 | 41.39604 | -8.58903 | 10410 ft | 300 kts | 161° |
| 2026-05-06 20:03 | 41.37555 | -8.57973 | 10597 ft | 322 kts | 162° |
| 2026-05-06 20:04 | 41.35396 | -8.57009 | 10738 ft | 343 kts | 162° |
| 2026-05-06 20:04 | 41.33082 | -8.55972 | 11000 ft | 358 kts | 162° |
| 2026-05-06 20:04 | 41.30693 | -8.54892 | 11493 ft | 366 kts | 161° |
| 2026-05-06 20:04 | 41.28279 | -8.53792 | 12254 ft | 366 kts | 162° |
| 2026-05-06 20:05 | 41.25867 | -8.52686 | 12911 ft | 370 kts | 161° |
| 2026-05-06 20:05 | 41.23405 | -8.51553 | 13470 ft | 377 kts | 161° |
| 2026-05-06 20:05 | 41.20907 | -8.50402 | 14079 ft | 382 kts | 162° |
| 2026-05-06 20:05 | 41.18384 | -8.49238 | 14737 ft | 385 kts | 162° |
| 2026-05-06 20:06 | 41.15848 | -8.48068 | 15385 ft | 388 kts | 162° |
| 2026-05-06 20:06 | 41.13289 | -8.46887 | 16028 ft | 391 kts | 162° |
| 2026-05-06 20:06 | 41.10712 | -8.45699 | 16673 ft | 395 kts | 162° |
| 2026-05-06 20:06 | 41.08100 | -8.44496 | 17273 ft | 399 kts | 162° |
| 2026-05-06 20:07 | 41.05471 | -8.43285 | 17895 ft | 402 kts | 162° |
| 2026-05-06 20:07 | 41.02818 | -8.42064 | 18498 ft | 405 kts | 162° |
| 2026-05-06 20:07 | 41.00149 | -8.40838 | 19049 ft | 407 kts | 162° |
| 2026-05-06 20:07 | 40.97474 | -8.39609 | 19624 ft | 408 kts | 162° |
| 2026-05-06 20:08 | 40.94785 | -8.38375 | 20190 ft | 410 kts | 162° |
| 2026-05-06 20:08 | 40.92072 | -8.37132 | 20635 ft | 415 kts | 162° |
| 2026-05-06 20:08 | 40.89334 | -8.35879 | 21113 ft | 417 kts | 162° |
| 2026-05-06 20:08 | 40.86581 | -8.34620 | 21608 ft | 420 kts | 162° |
| 2026-05-06 20:09 | 40.83806 | -8.33351 | 22095 ft | 423 kts | 162° |
| 2026-05-06 20:09 | 40.81021 | -8.32078 | 22589 ft | 425 kts | 162° |
| 2026-05-06 20:09 | 40.78214 | -8.30797 | 23052 ft | 428 kts | 162° |
| 2026-05-06 20:09 | 40.75387 | -8.29508 | 23498 ft | 431 kts | 162° |
| 2026-05-06 20:10 | 40.72544 | -8.28213 | 23885 ft | 433 kts | 162° |
| 2026-05-06 20:10 | 40.69690 | -8.26914 | 24272 ft | 435 kts | 162° |
| 2026-05-06 20:10 | 40.66821 | -8.25610 | 24650 ft | 437 kts | 162° |
| 2026-05-06 20:10 | 40.63940 | -8.24301 | 25024 ft | 439 kts | 162° |
| 2026-05-06 20:11 | 40.61050 | -8.22989 | 25370 ft | 441 kts | 162° |
| 2026-05-06 20:11 | 40.58141 | -8.21671 | 25718 ft | 443 kts | 163° |
| 2026-05-06 20:11 | 40.55218 | -8.20346 | 26066 ft | 445 kts | 163° |
| 2026-05-06 20:11 | 40.52324 | -8.19036 | 26402 ft | 447 kts | 163° |
| 2026-05-06 20:12 | 40.49377 | -8.17704 | 26728 ft | 449 kts | 163° |
| 2026-05-06 20:12 | 40.46377 | -8.16348 | 27051 ft | 451 kts | 163° |
| 2026-05-06 20:12 | 40.43451 | -8.15028 | 27364 ft | 452 kts | 163° |
| 2026-05-06 20:12 | 40.40467 | -8.13682 | 27675 ft | 454 kts | 163° |
| 2026-05-06 20:13 | 40.37471 | -8.12333 | 27976 ft | 456 kts | 163° |
| 2026-05-06 20:13 | 40.34476 | -8.10985 | 28369 ft | 455 kts | 163° |
| 2026-05-06 20:13 | 40.31486 | -8.09639 | 28851 ft | 453 kts | 163° |
| 2026-05-06 20:13 | 40.28513 | -8.08302 | 29356 ft | 450 kts | 163° |
| 2026-05-06 20:14 | 40.25554 | -8.06973 | 29803 ft | 449 kts | 163° |
| 2026-05-06 20:14 | 40.22602 | -8.05649 | 30176 ft | 448 kts | 164° |
| 2026-05-06 20:14 | 40.19659 | -8.04331 | 30490 ft | 448 kts | 164° |
| 2026-05-06 20:14 | 40.16705 | -8.03010 | 30805 ft | 447 kts | 164° |
| 2026-05-06 20:15 | 40.13767 | -8.01697 | 31131 ft | 447 kts | 165° |
| 2026-05-06 20:15 | 40.10820 | -8.00380 | 31403 ft | 447 kts | 165° |
| 2026-05-06 20:15 | 40.07875 | -7.99065 | 31741 ft | 447 kts | 165° |
| 2026-05-06 20:15 | 40.04946 | -7.97759 | 32105 ft | 445 kts | 165° |
| 2026-05-06 20:16 | 40.02017 | -7.96453 | 32419 ft | 445 kts | 165° |
| 2026-05-06 20:16 | 39.99082 | -7.95147 | 32680 ft | 445 kts | 165° |
| 2026-05-06 20:16 | 39.96149 | -7.93843 | 32947 ft | 445 kts | 166° |
| 2026-05-06 20:16 | 39.93221 | -7.92542 | 33264 ft | 444 kts | 166° |
| 2026-05-06 20:17 | 39.90298 | -7.91244 | 33578 ft | 444 kts | 166° |
| 2026-05-06 20:17 | 39.87375 | -7.89948 | 33837 ft | 444 kts | 166° |
| 2026-05-06 20:17 | 39.84452 | -7.88653 | 34062 ft | 444 kts | 166° |
| 2026-05-06 20:17 | 39.81525 | -7.87357 | 34273 ft | 444 kts | 166° |
| 2026-05-06 20:18 | 39.78599 | -7.86063 | 34458 ft | 445 kts | 166° |
| 2026-05-06 20:18 | 39.75663 | -7.84766 | 34638 ft | 446 kts | 166° |
| 2026-05-06 20:18 | 39.72719 | -7.83467 | 34804 ft | 448 kts | 166° |
| 2026-05-06 20:18 | 39.69764 | -7.82164 | 34976 ft | 449 kts | 166° |
| 2026-05-06 20:19 | 39.66806 | -7.80860 | 35191 ft | 449 kts | 166° |
| 2026-05-06 20:19 | 39.63848 | -7.79557 | 35382 ft | 449 kts | 166° |
| 2026-05-06 20:19 | 39.60887 | -7.78254 | 35570 ft | 450 kts | 166° |
| 2026-05-06 20:19 | 39.57918 | -7.76949 | 35754 ft | 451 kts | 165° |
| 2026-05-06 20:20 | 39.54944 | -7.75643 | 35960 ft | 451 kts | 165° |
| 2026-05-06 20:20 | 39.51967 | -7.74336 | 36103 ft | 452 kts | 165° |
| 2026-05-06 20:20 | 39.48984 | -7.73030 | 36236 ft | 454 kts | 165° |
| 2026-05-06 20:20 | 39.45990 | -7.71719 | 36424 ft | 454 kts | 165° |
| 2026-05-06 20:21 | 39.42998 | -7.70409 | 36650 ft | 454 kts | 165° |
| 2026-05-06 20:21 | 39.40006 | -7.69101 | 36830 ft | 454 kts | 165° |
| 2026-05-06 20:21 | 39.33988 | -7.66474 | 36899 ft | 458 kts | 165° |
| 2026-05-06 20:22 | 39.28004 | -7.63865 | 36894 ft | 455 kts | 165° |
| 2026-05-06 20:22 | 39.22016 | -7.61259 | 36901 ft | 453 kts | 165° |
| 2026-05-06 20:23 | 39.16055 | -7.58671 | 36888 ft | 451 kts | 165° |
| 2026-05-06 20:23 | 39.10117 | -7.56097 | 36885 ft | 450 kts | 165° |
| 2026-05-06 20:24 | 39.04190 | -7.53533 | 36897 ft | 450 kts | 165° |
| 2026-05-06 20:24 | 38.98255 | -7.50971 | 36894 ft | 450 kts | 165° |
| 2026-05-06 20:25 | 38.92307 | -7.48407 | 36901 ft | 451 kts | 165° |
| 2026-05-06 20:25 | 38.86341 | -7.45840 | 36881 ft | 453 kts | 165° |
| 2026-05-06 20:26 | 38.80358 | -7.43270 | 36885 ft | 454 kts | 165° |
| 2026-05-06 20:26 | 38.75375 | -7.41132 | 36892 ft | 455 kts | 165° |
| 2026-05-06 20:27 | 38.69365 | -7.38559 | 36880 ft | 456 kts | 165° |
| 2026-05-06 20:27 | 38.63334 | -7.35980 | 36880 ft | 457 kts | 165° |
| 2026-05-06 20:28 | 38.57302 | -7.33407 | 36883 ft | 458 kts | 165° |
| 2026-05-06 20:28 | 38.51264 | -7.30835 | 36886 ft | 457 kts | 166° |
| 2026-05-06 20:29 | 38.45222 | -7.28265 | 36870 ft | 457 kts | 166° |
| 2026-05-06 20:29 | 38.39186 | -7.25703 | 36865 ft | 457 kts | 166° |
| 2026-05-06 20:30 | 38.30152 | -7.21877 | 36871 ft | 456 kts | 166° |
| 2026-05-06 20:31 | 38.24136 | -7.19334 | 36874 ft | 455 kts | 166° |
| 2026-05-06 20:31 | 38.18136 | -7.16803 | 36870 ft | 454 kts | 166° |
| 2026-05-06 20:32 | 38.12151 | -7.14281 | 36878 ft | 452 kts | 166° |
| 2026-05-06 20:32 | 38.06192 | -7.11749 | 36871 ft | 453 kts | 162° |
| 2026-05-06 20:32 | 38.03404 | -7.09833 | 36877 ft | 461 kts | 146° |
| 2026-05-06 20:33 | 38.01073 | -7.07081 | 36871 ft | 468 kts | 134° |
| 2026-05-06 20:33 | 37.99210 | -7.03680 | 36876 ft | 474 kts | 122° |
| 2026-05-06 20:33 | 37.97630 | -7.00014 | 36863 ft | 474 kts | 122° |
| 2026-05-06 20:34 | 37.94525 | -6.92634 | 36865 ft | 474 kts | 122° |
| 2026-05-06 20:34 | 37.91375 | -6.85284 | 36873 ft | 475 kts | 122° |
| 2026-05-06 20:35 | 37.88175 | -6.77956 | 36869 ft | 476 kts | 123° |
| 2026-05-06 20:35 | 37.84955 | -6.70631 | 36876 ft | 477 kts | 123° |
| 2026-05-06 20:36 | 37.81729 | -6.63303 | 36870 ft | 478 kts | 123° |
| 2026-05-06 20:36 | 37.78492 | -6.55963 | 36871 ft | 478 kts | 123° |
| 2026-05-06 20:37 | 37.75251 | -6.48626 | 36863 ft | 478 kts | 123° |
| 2026-05-06 20:37 | 37.72006 | -6.41299 | 36872 ft | 478 kts | 123° |
| 2026-05-06 20:37 | 37.70382 | -6.37639 | 36650 ft | 480 kts | 123° |
| 2026-05-06 20:38 | 37.68757 | -6.33976 | 36378 ft | 475 kts | 123° |
| 2026-05-06 20:38 | 37.67148 | -6.30356 | 36026 ft | 471 kts | 123° |
| 2026-05-06 20:38 | 37.65542 | -6.26753 | 35391 ft | 471 kts | 124° |
| 2026-05-06 20:38 | 37.63932 | -6.23150 | 34757 ft | 471 kts | 124° |
| 2026-05-06 20:39 | 37.62316 | -6.19542 | 34112 ft | 473 kts | 124° |
| 2026-05-06 20:39 | 37.60698 | -6.15933 | 33340 ft | 475 kts | 124° |
| 2026-05-06 20:39 | 37.59070 | -6.12304 | 32597 ft | 476 kts | 124° |
| 2026-05-06 20:39 | 37.57440 | -6.08671 | 31852 ft | 476 kts | 124° |
| 2026-05-06 20:40 | 37.55803 | -6.05026 | 30995 ft | 479 kts | 123° |
| 2026-05-06 20:40 | 37.54152 | -6.01355 | 30086 ft | 484 kts | 123° |
| 2026-05-06 20:40 | 37.52486 | -5.97654 | 29058 ft | 487 kts | 123° |
| 2026-05-06 20:40 | 37.50814 | -5.93942 | 28081 ft | 488 kts | 123° |
| 2026-05-06 20:41 | 37.49137 | -5.90220 | 27199 ft | 487 kts | 123° |
| 2026-05-06 20:41 | 37.47474 | -5.86532 | 26582 ft | 481 kts | 123° |
| 2026-05-06 20:41 | 37.45837 | -5.82904 | 26026 ft | 473 kts | 123° |
| 2026-05-06 20:41 | 37.44238 | -5.79369 | 25176 ft | 472 kts | 123° |
| 2026-05-06 20:42 | 37.42613 | -5.75765 | 24162 ft | 477 kts | 122° |
| 2026-05-06 20:42 | 37.41085 | -5.71995 | 23331 ft | 476 kts | 119° |
| 2026-05-06 20:42 | 37.39707 | -5.68296 | 22586 ft | 470 kts | 118° |
| 2026-05-06 20:42 | 37.38367 | -5.64584 | 21917 ft | 462 kts | 118° |
| 2026-05-06 20:43 | 37.37051 | -5.60926 | 21223 ft | 456 kts | 118° |
| 2026-05-06 20:43 | 37.35739 | -5.57319 | 20508 ft | 451 kts | 118° |
| 2026-05-06 20:43 | 37.34431 | -5.53766 | 19793 ft | 446 kts | 118° |
| 2026-05-06 20:43 | 37.33130 | -5.50262 | 19095 ft | 437 kts | 118° |
| 2026-05-06 20:44 | 37.31852 | -5.46840 | 18242 ft | 428 kts | 118° |
| 2026-05-06 20:44 | 37.30591 | -5.43476 | 17058 ft | 423 kts | 118° |
| 2026-05-06 20:44 | 37.29343 | -5.40159 | 15900 ft | 418 kts | 118° |
| 2026-05-06 20:44 | 37.28109 | -5.36880 | 14838 ft | 412 kts | 118° |
| 2026-05-06 20:45 | 37.26894 | -5.33653 | 13831 ft | 406 kts | 117° |
| 2026-05-06 20:45 | 37.25697 | -5.30477 | 12948 ft | 397 kts | 117° |
| 2026-05-06 20:45 | 37.24541 | -5.27411 | 12426 ft | 383 kts | 117° |
| 2026-05-06 20:45 | 37.23409 | -5.24411 | 11884 ft | 378 kts | 117° |
| 2026-05-06 20:46 | 37.22288 | -5.21444 | 11326 ft | 374 kts | 117° |
| 2026-05-06 20:46 | 37.21179 | -5.18514 | 10996 ft | 365 kts | 117° |
| 2026-05-06 20:46 | 37.20114 | -5.15696 | 10848 ft | 352 kts | 117° |
| 2026-05-06 20:46 | 37.19082 | -5.12971 | 10693 ft | 340 kts | 117° |
| 2026-05-06 20:47 | 37.18085 | -5.10339 | 10552 ft | 328 kts | 117° |
| 2026-05-06 20:47 | 37.17120 | -5.07795 | 10426 ft | 318 kts | 117° |
| 2026-05-06 20:47 | 37.16184 | -5.05331 | 10287 ft | 308 kts | 117° |
| 2026-05-06 20:47 | 37.15277 | -5.02945 | 10165 ft | 299 kts | 117° |
| 2026-05-06 20:48 | 37.14395 | -5.00624 | 10045 ft | 291 kts | 117° |
| 2026-05-06 20:48 | 37.13532 | -4.98359 | 9836 ft | 286 kts | 117° |
| 2026-05-06 20:48 | 37.12677 | -4.96114 | 9547 ft | 285 kts | 117° |
| 2026-05-06 20:48 | 37.11825 | -4.93883 | 9238 ft | 282 kts | 116° |
| 2026-05-06 20:49 | 37.10983 | -4.91673 | 8963 ft | 280 kts | 116° |
| 2026-05-06 20:49 | 37.10151 | -4.89491 | 8776 ft | 273 kts | 116° |
| 2026-05-06 20:49 | 37.09343 | -4.87375 | 8648 ft | 265 kts | 116° |
| 2026-05-06 20:49 | 37.08558 | -4.85320 | 8523 ft | 258 kts | 116° |
| 2026-05-06 20:50 | 37.07795 | -4.83326 | 8416 ft | 250 kts | 116° |
| 2026-05-06 20:50 | 37.06972 | -4.81462 | 8296 ft | 241 kts | 132° |
| 2026-05-06 20:50 | 37.05619 | -4.80327 | 8123 ft | 234 kts | 162° |
| 2026-05-06 20:50 | 37.04031 | -4.79992 | 7914 ft | 231 kts | 177° |
| 2026-05-06 20:51 | 37.02425 | -4.79969 | 7670 ft | 231 kts | 179° |
| 2026-05-06 20:51 | 37.00819 | -4.79972 | 7426 ft | 231 kts | 179° |
| 2026-05-06 20:51 | 36.99215 | -4.79980 | 7184 ft | 230 kts | 179° |
| 2026-05-06 20:51 | 36.97634 | -4.79978 | 6943 ft | 230 kts | 179° |
| 2026-05-06 20:52 | 36.96029 | -4.79967 | 6694 ft | 231 kts | 179° |
| 2026-05-06 20:52 | 36.94425 | -4.79953 | 6455 ft | 230 kts | 179° |
| 2026-05-06 20:52 | 36.92827 | -4.79850 | 6193 ft | 230 kts | 167° |
| 2026-05-06 20:52 | 36.91324 | -4.79205 | 5959 ft | 228 kts | 159° |
| 2026-05-06 20:53 | 36.89843 | -4.78519 | 5704 ft | 227 kts | 160° |
| 2026-05-06 20:53 | 36.88359 | -4.77857 | 5476 ft | 225 kts | 159° |
| 2026-05-06 20:53 | 36.86901 | -4.77202 | 5266 ft | 220 kts | 156° |
| 2026-05-06 20:53 | 36.85554 | -4.76362 | 5002 ft | 214 kts | 150° |
| 2026-05-06 20:54 | 36.84269 | -4.75476 | 4775 ft | 208 kts | 150° |
| 2026-05-06 20:54 | 36.83008 | -4.74612 | 4548 ft | 206 kts | 150° |
| 2026-05-06 20:54 | 36.81750 | -4.73746 | 4293 ft | 207 kts | 151° |
| 2026-05-06 20:54 | 36.80482 | -4.72883 | 4060 ft | 207 kts | 151° |
| 2026-05-06 20:55 | 36.79225 | -4.72032 | 3817 ft | 203 kts | 151° |
| 2026-05-06 20:55 | 36.78003 | -4.71197 | 3589 ft | 197 kts | 147° |
| 2026-05-06 20:55 | 36.77133 | -4.69970 | 3385 ft | 188 kts | 112° |
| 2026-05-06 20:55 | 36.76629 | -4.68486 | 3162 ft | 186 kts | 121° |
| 2026-05-06 20:56 | 36.75946 | -4.67127 | 2923 ft | 185 kts | 119° |
| 2026-05-06 20:56 | 36.75354 | -4.65704 | 2685 ft | 184 kts | 117° |
| 2026-05-06 20:56 | 36.74775 | -4.64296 | 2441 ft | 181 kts | 117° |
| 2026-05-06 20:56 | 36.74193 | -4.62904 | 2206 ft | 182 kts | 117° |
| 2026-05-06 20:57 | 36.73615 | -4.61528 | 1966 ft | 180 kts | 117° |
| 2026-05-06 20:57 | 36.73050 | -4.60183 | 1725 ft | 170 kts | 117° |
| 2026-05-06 20:57 | 36.72519 | -4.58920 | 1522 ft | 158 kts | 117° |
| 2026-05-06 20:57 | 36.72023 | -4.57738 | 1317 ft | 154 kts | 117° |
| 2026-05-06 20:58 | 36.71533 | -4.56571 | 1100 ft | 150 kts | 117° |
| 2026-05-06 20:58 | 36.71053 | -4.55426 | 915 ft | 149 kts | 117° |
| 2026-05-06 20:58 | 36.70575 | -4.54291 | 726 ft | 147 kts | 117° |
| 2026-05-06 20:58 | 36.70095 | -4.53147 | 498 ft | 151 kts | 117° |
| 2026-05-06 20:59 | 36.69619 | -4.52011 | 290 ft | 147 kts | 116° |
| 2026-05-06 20:59 | 36.69158 | -4.50908 | 106 ft | 141 kts | 117° |
| 2026-05-06 20:59 | 36.68721 | -4.49874 | 44 ft | 122 kts | 114° |
| 2026-05-06 20:59 | 36.68402 | -4.49103 | 48 ft | 71 kts | 117° |
| 2026-05-06 21:00 | 36.68253 | -4.48759 | 46 ft | 33 kts | 120° |
| 2026-05-06 21:00 | 36.68125 | -4.48569 | 44 ft | 19 kts | 142° |
| 2026-05-06 21:00 | 36.68029 | -4.48492 | 46 ft | 13 kts | 150° |
| 2026-05-06 21:00 | 36.67944 | -4.48476 | 47 ft | 13 kts | 191° |
| 2026-05-06 21:01 | 36.67865 | -4.48519 | 45 ft | 12 kts | 207° |
| 2026-05-06 21:01 | 36.67828 | -4.48559 | 48 ft | 5 kts | 257° |
| 2026-05-06 21:01 | 36.67840 | -4.48601 | 46 ft | 6 kts | 297° |
| 2026-05-06 21:01 | 36.67864 | -4.48658 | 48 ft | 9 kts | 297° |
| 2026-05-06 21:02 | 36.67896 | -4.48734 | 48 ft | 11 kts | 298° |
| 2026-05-06 21:02 | 36.67937 | -4.48828 | 48 ft | 13 kts | 297° |
| 2026-05-06 21:02 | 36.67983 | -4.48940 | 48 ft | 16 kts | 297° |
| 2026-05-06 21:02 | 36.68035 | -4.49063 | 48 ft | 13 kts | 297° |
| 2026-05-06 21:03 | 36.68075 | -4.49159 | 46 ft | 11 kts | 297° |
| 2026-05-06 21:03 | 36.68100 | -4.49218 | 48 ft | 6 kts | 298° |
| 2026-05-06 21:03 | 36.68134 | -4.49247 | 48 ft | 6 kts | 315° |
| 2026-05-06 21:03 | 36.68172 | -4.49255 | 48 ft | 6 kts | 20° |
| 2026-05-06 21:04 | 36.68192 | -4.49242 | 46 ft | 2 kts | 24° |
| 2026-05-06 21:04 | 36.68206 | -4.49234 | 48 ft | 0 kts | 25° |